Darstellungsparameter: Aktuell verwendete Einstellungen:
Skalierung der Graphiken ... ?
xyx+y,   Skalierungsfaktor:      Skalierung: Modus: x, Faktor: 1
Darstellungszeitraum ... ?
Vom - - bis: - -   Zeitraum: 09.05.2011 - 09.05.2011
Min/Max/Avg-Anzeige ... ?
Zeige MMA aktuell
Zeige MMA Monat
Zeige MMA alles
Zeige --A aktuell
Zeige --A Monat
Zeige --A alles
Keine MMA-Anzeige
MMA:
Average (ber die Originaldaten)
MMA-Basis: 23.02.2003 - 23.04.2020
Quicknavigation für Darstellung... ?
Tage:      1T, 2T, 3T, 5T -1T -2T -3T -5T +1T +2T +3T +5T
Wochen: 1W, 2W, 3W -1W -2W -3W +1W +2W +3W
Monate: 1M, 3M, 6M -1M -3M -6M +1M +3M +6M
Jahre:    1J, 3J, 5J, 10J -1J -3J -5J -10J +1J +3J +5J +10J
Nutze für die Darstellung ... ?
Originaldaten oder Mittelwerte auf ...
Stundenbasis Tagesbasis Wochenbasis
Monatsbasis Jahresbasis      Datenbasis: Original-Daten
Darstellen als:
Statistik (Auto) Statistik J:M      Darstellung:
Zur Graphik,    zurück zur Übersicht aller Sensoren.
 
Tabellarische Datenbersicht: ?
 
Sensor: Nr:Datum:Temp:Abs-Feuchte:Windchill:Wind:
Aussen-T/F 1 09-05-2011 00:07:02 14.5 C 4.85 g/m*3 14.5 C 0 km/h
2 09-05-2011 00:19:03 14.2 C 4.88 g/m*3 14.2 C 0 km/h
3 09-05-2011 00:31:03 13.9 C 4.92 g/m*3 13.9 C 0 km/h
4 09-05-2011 00:43:03 14.2 C 5.13 g/m*3 14.2 C 0 km/h
5 09-05-2011 00:55:03 13.5 C 5.26 g/m*3 13.5 C 0 km/h
6 09-05-2011 01:07:03 13 C 5.1 g/m*3 13 C 0 km/h
7 09-05-2011 01:19:03 12.8 C 5.26 g/m*3 12.8 C 0 km/h
8 09-05-2011 01:31:03 12.4 C 5.24 g/m*3 12.4 C 0 km/h
9 09-05-2011 01:43:03 12.3 C 5.32 g/m*3 12.3 C 0 km/h
10 09-05-2011 01:55:03 12.2 C 5.5 g/m*3 12.2 C 0 km/h
11 09-05-2011 02:07:03 12 C 5.33 g/m*3 12 C 0 km/h
12 09-05-2011 02:19:03 11.8 C 5.58 g/m*3 11.8 C 0 km/h
13 09-05-2011 02:31:03 11.6 C 5.61 g/m*3 11.6 C 0 km/h
14 09-05-2011 02:43:03 11.2 C 5.57 g/m*3 11.2 C 0 km/h
15 09-05-2011 02:55:03 11.3 C 5.51 g/m*3 11.3 C 0 km/h
16 09-05-2011 03:07:03 11 C 5.51 g/m*3 11 C 0 km/h
17 09-05-2011 03:19:03 11 C 5.61 g/m*3 11 C 0 km/h
18 09-05-2011 03:31:03 10.8 C 5.83 g/m*3 10.8 C 0 km/h
19 09-05-2011 03:43:03 10.5 C 5.72 g/m*3 10.5 C 0 km/h
20 09-05-2011 03:55:03 10.5 C 6.11 g/m*3 10.5 C 0 km/h
21 09-05-2011 04:07:03 11.1 C 6.04 g/m*3 11.1 C 0 km/h
22 09-05-2011 04:19:04 10.7 C 5.99 g/m*3 10.7 C 0 km/h
23 09-05-2011 04:31:04 10.4 C 6.17 g/m*3 10.4 C 0 km/h
24 09-05-2011 04:43:04 10.2 C 6.19 g/m*3 10.2 C 0 km/h
25 09-05-2011 04:55:04 10.4 C 6.36 g/m*3 10.4 C 0 km/h
Sensor: Nr:Datum:Temp:Abs-Feuchte:Windchill:Wind:
Aussen-T/F 26 09-05-2011 05:07:04 10.4 C 6.46 g/m*3 10.4 C 0 km/h
27 09-05-2011 05:19:04 10.4 C 6.36 g/m*3 10.4 C 0 km/h
28 09-05-2011 05:31:04 10.8 C 6.62 g/m*3 10.8 C 0 km/h
29 09-05-2011 05:43:04 10.5 C 6.5 g/m*3 10.5 C 0 km/h
30 09-05-2011 05:55:04 10.1 C 6.43 g/m*3 10.1 C 0 km/h
31 09-05-2011 06:07:04 10.4 C 6.65 g/m*3 10.4 C 0 km/h
32 09-05-2011 06:19:04 10.8 C 6.72 g/m*3 10.8 C 0 km/h
33 09-05-2011 06:31:04 10.4 C 6.55 g/m*3 10.4 C 0 km/h
34 09-05-2011 06:43:04 10.9 C 6.76 g/m*3 10.9 C 0 km/h
35 09-05-2011 06:55:04 10.7 C 6.68 g/m*3 10.7 C 0 km/h
36 09-05-2011 07:07:04 10.8 C 6.92 g/m*3 10.8 C 0 km/h
37 09-05-2011 07:19:02 10.9 C 6.86 g/m*3 10.9 C 0 km/h
38 09-05-2011 07:31:01 11 C 6.91 g/m*3 11 C 0 km/h
39 09-05-2011 07:43:01 11.4 C 6.98 g/m*3 11.4 C 0 km/h
40 09-05-2011 07:55:02 11.3 C 6.94 g/m*3 11.3 C 0 km/h
41 09-05-2011 08:07:01 11.8 C 6.95 g/m*3 11.8 C 0 km/h
42 09-05-2011 08:19:01 12 C 7.03 g/m*3 12 C 0 km/h
43 09-05-2011 08:31:01 12.4 C 6.99 g/m*3 12.4 C 0 km/h
44 09-05-2011 08:43:01 12.6 C 7.08 g/m*3 12.6 C 0 km/h
45 09-05-2011 08:55:01 12.8 C 7.06 g/m*3 12.8 C 0 km/h
46 09-05-2011 09:07:01 13.6 C 6.94 g/m*3 13.6 C 0 km/h
47 09-05-2011 09:19:02 15.1 C 6.06 g/m*3 15.1 C 0 km/h
48 09-05-2011 09:31:01 16.3 C 5.55 g/m*3 16.3 C 0 km/h
49 09-05-2011 09:43:01 16.9 C 5.47 g/m*3 16.9 C 0 km/h
50 09-05-2011 09:55:02 17.7 C 5.13 g/m*3 17.7 C 0 km/h
Sensor: Nr:Datum:Temp:Abs-Feuchte:Windchill:Wind:
Aussen-T/F 51 09-05-2011 10:07:01 18.3 C 5 g/m*3 18.3 C 0 km/h
52 09-05-2011 10:19:01 18.5 C 4.59 g/m*3 18.5 C 0 km/h
53 09-05-2011 10:31:01 19.1 C 4.26 g/m*3 19.1 C 0 km/h
54 09-05-2011 10:43:01 19.3 C 4.31 g/m*3 19.3 C 0 km/h
55 09-05-2011 10:55:02 19.3 C 4.31 g/m*3 19.3 C 0 km/h
56 09-05-2011 11:07:01 19.5 C 4.2 g/m*3 19.5 C 0 km/h
57 09-05-2011 11:19:01 19.8 C 4.44 g/m*3 19.8 C 0 km/h
58 09-05-2011 11:31:02 20.2 C 4.02 g/m*3 20.2 C 0 km/h
59 09-05-2011 11:43:02 20.8 C 3.62 g/m*3 20.8 C 0 km/h
60 09-05-2011 11:55:01 21 C 3.85 g/m*3 21 C 0 km/h
61 09-05-2011 12:07:02 21.6 C 3.79 g/m*3 21.6 C 0 km/h
62 09-05-2011 12:19:01 21.8 C 3.84 g/m*3 21.8 C 0 km/h
63 09-05-2011 12:31:01 21.6 C 3.79 g/m*3 21.6 C 0 km/h
64 09-05-2011 12:43:02 22.4 C 3.97 g/m*3 22.4 C 0 km/h
65 09-05-2011 12:55:01 22.9 C 4.09 g/m*3 22.9 C 0 km/h
66 09-05-2011 13:07:02 23 C 4.11 g/m*3 23 C 0 km/h
67 09-05-2011 13:19:01 23.4 C 4.21 g/m*3 23.4 C 0 km/h
68 09-05-2011 13:31:01 25.9 C 4.84 g/m*3 25.9 C 0 km/h
69 09-05-2011 13:43:01 28.6 C 5.62 g/m*3 28.6 C 0 km/h
70 09-05-2011 13:55:01 29.4 C 5.87 g/m*3 29.4 C 0 km/h
71 09-05-2011 14:07:01 27.8 C 5.38 g/m*3 27.8 C 0 km/h
72 09-05-2011 14:19:02 27.9 C 5.41 g/m*3 27.9 C 0 km/h
73 09-05-2011 14:31:01 28.2 C 5.5 g/m*3 28.2 C 0 km/h
74 09-05-2011 14:43:01 29.1 C 5.78 g/m*3 29.1 C 0 km/h
75 09-05-2011 14:55:02 29.5 C 5.9 g/m*3 29.5 C 0 km/h
Sensor: Nr:Datum:Temp:Abs-Feuchte:Windchill:Wind:
Aussen-T/F 76 09-05-2011 15:07:01 31.4 C 6.54 g/m*3 31.4 C 0 km/h
77 09-05-2011 15:19:02 30.5 C 6.23 g/m*3 30.5 C 0 km/h
78 09-05-2011 15:31:01 31.3 C 6.5 g/m*3 31.3 C 0 km/h
79 09-05-2011 15:43:01 29 C 5.74 g/m*3 29 C 0 km/h
80 09-05-2011 15:55:02 28.3 C 5.53 g/m*3 28.3 C 0 km/h
81 09-05-2011 16:07:01 27.1 C 5.18 g/m*3 27.1 C 0 km/h
82 09-05-2011 16:19:01 26.4 C 5.73 g/m*3 26.4 C 0 km/h
83 09-05-2011 16:31:02 26.2 C 5.66 g/m*3 26.2 C 0 km/h
84 09-05-2011 16:43:02 26.2 C 6.4 g/m*3 26.2 C 0 km/h
85 09-05-2011 16:55:02 26.5 C 6.51 g/m*3 26.5 C 0 km/h
86 09-05-2011 17:07:01 29.1 C 5.78 g/m*3 29.1 C 0 km/h
87 09-05-2011 17:19:01 30 C 6.06 g/m*3 30 C 0 km/h
88 09-05-2011 17:31:02 31.5 C 6.57 g/m*3 31.5 C 0 km/h
89 09-05-2011 17:43:02 31.4 C 6.54 g/m*3 31.4 C 0 km/h
90 09-05-2011 17:55:01 32.1 C 6.79 g/m*3 32.1 C 0 km/h
91 09-05-2011 18:07:02 31.6 C 6.61 g/m*3 31.6 C 0 km/h
92 09-05-2011 18:19:01 30 C 6.06 g/m*3 30 C 0 km/h
93 09-05-2011 18:31:02 30.7 C 6.3 g/m*3 30.7 C 0 km/h
94 09-05-2011 18:43:02 30.2 C 6.13 g/m*3 30.2 C 0 km/h
95 09-05-2011 18:55:01 30.5 C 6.23 g/m*3 30.5 C 0 km/h
96 09-05-2011 19:07:02 30.1 C 6.1 g/m*3 30.1 C 0 km/h
97 09-05-2011 19:19:01 29.5 C 5.9 g/m*3 29.5 C 0 km/h
98 09-05-2011 19:31:01 27.7 C 5.35 g/m*3 27.7 C 0 km/h
99 09-05-2011 19:43:01 24 C 5 g/m*3 24 C 0 km/h
100 09-05-2011 19:55:01 21.6 C 5.31 g/m*3 21.6 C 0 km/h
Sensor: Nr:Datum:Temp:Abs-Feuchte:Windchill:Wind:
Aussen-T/F 101 09-05-2011 20:07:01 20.8 C 5.43 g/m*3 20.8 C 0 km/h
102 09-05-2011 20:19:01 20.4 C 5.31 g/m*3 20.4 C 0 km/h
103 09-05-2011 20:31:01 19.5 C 5.03 g/m*3 19.5 C 0 km/h
104 09-05-2011 20:43:01 18.8 C 4.83 g/m*3 18.8 C 0 km/h
105 09-05-2011 20:55:01 18.3 C 4.69 g/m*3 18.3 C 0 km/h
106 09-05-2011 21:07:01 17.9 C 4.58 g/m*3 17.9 C 0 km/h
107 09-05-2011 21:19:02 17.2 C 4.54 g/m*3 17.2 C 0 km/h
108 09-05-2011 21:31:01 16.2 C 4.55 g/m*3 16.2 C 0 km/h
109 09-05-2011 21:43:01 15.8 C 4.85 g/m*3 15.8 C 0 km/h
110 09-05-2011 21:55:01 15.1 C 4.64 g/m*3 15.1 C 0 km/h
111 09-05-2011 22:07:01 14.5 C 4.97 g/m*3 14.5 C 0 km/h
112 09-05-2011 22:19:02 14.1 C 4.73 g/m*3 14.1 C 0 km/h
113 09-05-2011 22:32:01 13.6 C 4.83 g/m*3 13.6 C 0 km/h
114 09-05-2011 22:44:01 13.1 C 4.79 g/m*3 13.1 C 0 km/h
115 09-05-2011 22:56:01 12.9 C 4.73 g/m*3 12.9 C 0 km/h
116 09-05-2011 23:08:01 12.5 C 4.73 g/m*3 12.5 C 0 km/h
117 09-05-2011 23:20:01 11.9 C 4.87 g/m*3 11.9 C 0 km/h
118 09-05-2011 23:32:01 11.8 C 4.95 g/m*3 11.8 C 0 km/h
119 09-05-2011 23:44:01 11.4 C 4.93 g/m*3 11.4 C 0 km/h
120 09-05-2011 23:56:02 11 C 5 g/m*3 11 C 0 km/h

Legende:
   Min
   Max


Maximal/Minimal-Werte vom 23.02.2003 - 23.04.2020

Sensor Min Max Avg
Temp
(Aussen-T/F)
-16.4 °C
20-12-2009  01:30:01
40.4 °C
25-07-2019  16:20:00
11.1 °C

Die Daten stammen von einer Davis Vantage Pro 2 Wetter-Station und werden unter Linux mit der Software wview2wettercgi und aufbereitet. Alle Angaben erfolgen ohne Gewähr für ihre Vollständigkeit oder Richtigkeit.
Kontakt: Rainer Krienke krienke@uni-koblenz.de . Meine Webseiten an der Uni Koblenz oder privat.
Version: $Revision: 0.78 $